メインページ
METAR-TAF:

METAR-TAF

空港 :

パース空港

パース, オーストラリア

緯度: 31-56S, 経度: 115-57E, 海抜: 20m

現時点の気象観測

当レポートは41分前の21:30(UTC)に作成
北西の風 8kt
気温 16°C
湿度 72%
気圧 1015 hPa
視程10km以上
高度2800ftの雲はほとんどない
高度5100ftの千切れ雲あり
近辺でにわか雨

METAR: YPPH 202130Z 31008KT 9999 VCSH FEW028 BKN051 16/11 Q1015 NOSIG

時間: 06:11 (22:11 UTC)

予報

当レポートは4時間58分前の17:13(UTC)に作成
予報は20日の 18時(UTC)から 21日の 24時(UTC)まで有効
西/北西の風 12kt
視程10km以上
高度3500ftの雲は散在している
高度4500ftの千切れ雲あり
弱いにわか雨
21日の 0200時(UTC)から
西の風 18kt
視程10km以上
高度3000ftの雲は散在している
高度3500ftの千切れ雲あり
弱いにわか雨
21日の 06時(UTC)から 21日の 08時(UTC)まで徐々に
西/南西の風 16kt
視程10km以上
高度3500ftの千切れ雲あり
21日の 1200時(UTC)から
西の風 20kt、最大30ktの突風を伴う
視程: 4000m
高度4500ftの千切れ雲あり
高度1500ftの千切れ雲あり
にわか雨

TAF: YPPH 201713Z 2018/2124 29012KT 9999 -SHRA SCT035 BKN045 FM210200 28018KT 9999 -SHRA SCT030 BKN035 BECMG 2106/2108 24016KT 9999 BKN035 FM211200 22010KT 9999 BKN045 INTER 2102/2107 27020G30KT 4000 SHRA BKN015

4,000以上の空港の気象観測と天気予報(METAR報とTAF報)

利用可能な観測所は地図上に黄色い丸と赤い丸で示す。

丸の上にカーソルを重ねると観測所名を参照できる。

次にクリックすると気象観測と天気予報を参照できる。

マップの切り替え:黒色「×」印の緑ボタンをクリックして拡大、「-」印の緑ボタンをクリックして縮小、緑色の三角印をクリックして隣りの地図に切り替え


METAR-TAF: